Time;durP1;ratioP1;P1;durP2;ratioP2;P2;SDS_P1;SDS_P2;PMS_P1;PMS_P2;Temp;Humidity;BMP_temperature;BMP_pressure;BME280_temperature;BME280_humidity;BME280_pressure;Samples;Min_cycle;Max_cycle;Signal;HPM_P1;HPM_P2
2022/03/25 00:00:30;;;;;;;61.85;30.17;;;;;;;6.31;64.05;102628.88;4970253;28;20100;-76
2022/03/25 00:02:56;;;;;;;65.72;30.77;;;;;;;6.28;64.46;102629.03;4954665;28;20061;-76
2022/03/25 00:05:21;;;;;;;70.13;31.40;;;;;;;6.27;64.94;102632.53;4968083;28;20038;-76
2022/03/25 00:07:47;;;;;;;63.33;30.33;;;;;;;6.26;65.03;102624.91;4968437;28;20045;-76
2022/03/25 00:10:12;;;;;;;62.45;30.95;;;;;;;6.21;64.76;102628.53;4950381;28;20045;-76
2022/03/25 00:12:39;;;;;;;62.95;29.65;;;;;;;6.18;65.20;102622.75;4986117;28;20084;-76
2022/03/25 00:15:06;;;;;;;60.97;29.75;;;;;;;6.13;65.28;102622.16;4983738;28;20479;-76
2022/03/25 00:17:32;;;;;;;58.90;30.85;;;;;;;6.08;65.74;102627.53;4967989;28;20579;-75
2022/03/25 00:19:57;;;;;;;62.83;30.35;;;;;;;6.02;65.69;102620.97;4968363;28;20029;-76
2022/03/25 00:22:23;;;;;;;63.33;29.23;;;;;;;5.98;65.62;102628.94;4966359;28;20043;-76
2022/03/25 00:24:48;;;;;;;65.68;30.17;;;;;;;5.93;66.29;102633.47;4957089;28;20287;-75
2022/03/25 00:27:14;;;;;;;62.30;31.13;;;;;;;5.88;66.35;102636.28;4982475;28;20049;-76
2022/03/25 00:29:40;;;;;;;60.80;29.60;;;;;;;5.85;65.70;102634.69;4955684;28;20097;-76
2022/03/25 00:32:06;;;;;;;63.60;30.65;;;;;;;5.84;65.90;102638.19;4966994;28;20070;-76
2022/03/25 00:34:32;;;;;;;63.33;30.70;;;;;;;5.81;65.70;102635.78;4967126;28;20045;-76
2022/03/25 00:36:59;;;;;;;65.78;30.65;;;;;;;5.77;66.16;102638.59;4969190;28;20643;-76
2022/03/25 00:39:24;;;;;;;70.47;31.45;;;;;;;5.73;66.34;102637.09;4964924;28;20033;-76
2022/03/25 00:41:50;;;;;;;62.30;30.52;;;;;;;5.72;66.31;102631.09;4966586;28;20297;-76
2022/03/25 00:44:18;;;;;;;64.15;30.15;;;;;;;5.72;66.59;102625.94;4970157;28;20046;-76
2022/03/25 00:46:44;;;;;;;60.58;30.02;;;;;;;5.73;66.77;102637.09;4968182;28;20065;-76
2022/03/25 00:49:11;;;;;;;58.72;28.95;;;;;;;5.74;66.62;102631.03;4967625;28;20030;-75
2022/03/25 00:51:37;;;;;;;68.80;30.58;;;;;;;5.75;66.83;102635.28;4982118;28;20591;-76
2022/03/25 00:54:03;;;;;;;66.53;30.35;;;;;;;5.73;66.91;102629.38;4970476;28;20500;-76
2022/03/25 00:56:29;;;;;;;66.25;29.15;;;;;;;5.72;67.48;102625.94;4968619;28;20030;-76
2022/03/25 00:58:56;;;;;;;68.10;30.10;;;;;;;5.70;67.35;102625.19;4968650;28;20549;-76
2022/03/25 01:01:21;;;;;;;66.22;30.52;;;;;;;5.69;67.98;102630.41;4948544;28;20034;-75
2022/03/25 01:03:47;;;;;;;62.65;30.00;;;;;;;5.66;67.60;102626.28;4957372;28;20467;-76
2022/03/25 01:06:15;;;;;;;61.92;29.70;;;;;;;5.63;68.16;102629.84;4951255;28;20041;-75
2022/03/25 01:08:40;;;;;;;61.20;28.60;;;;;;;5.61;68.36;102626.53;4969534;28;20057;-76
2022/03/25 01:11:06;;;;;;;62.25;28.70;;;;;;;5.59;68.49;102623.16;4966652;28;20037;-76
2022/03/25 01:13:33;;;;;;;63.25;30.88;;;;;;;5.56;68.84;102627.69;4980525;28;20125;-76
2022/03/25 01:16:05;;;;;;;62.33;30.50;;;;;;;5.52;68.79;102616.69;4982833;28;20444;-76
2022/03/25 01:18:31;;;;;;;56.55;28.25;;;;;;;5.50;69.07;102626.25;4981544;28;20100;-76
2022/03/25 01:20:57;;;;;;;58.67;29.77;;;;;;;5.42;69.18;102626.59;4967417;28;20038;-76
2022/03/25 01:23:24;;;;;;;60.42;29.60;;;;;;;5.39;69.50;102626.78;4966525;28;20502;-76
2022/03/25 01:25:51;;;;;;;62.88;29.77;;;;;;;5.36;69.66;102626.09;4983070;28;20038;-76
2022/03/25 01:28:16;;;;;;;57.90;29.02;;;;;;;5.33;69.56;102624.53;4950173;28;20676;-76
2022/03/25 01:30:43;;;;;;;68.35;29.20;;;;;;;5.29;69.41;102624.75;4984435;28;20045;-76
2022/03/25 01:33:09;;;;;;;58.67;29.60;;;;;;;5.24;69.52;102622.41;4968627;28;20026;-76
2022/03/25 01:35:35;;;;;;;64.03;28.70;;;;;;;5.19;69.38;102620.06;4986707;28;20149;-75
2022/03/25 01:38:01;;;;;;;66.35;30.42;;;;;;;5.15;69.83;102618.53;4971473;28;20030;-75
2022/03/25 01:40:27;;;;;;;68.10;31.65;;;;;;;5.12;70.07;102615.28;4971308;28;20034;-76
2022/03/25 01:42:53;;;;;;;67.63;30.88;;;;;;;5.10;70.04;102611.97;4970842;28;20037;-76
2022/03/25 01:45:32;;;;;;;63.50;30.15;;;;;;;5.06;70.56;102611.28;4990473;28;20525;-75
2022/03/25 01:47:58;;;;;;;64.30;28.77;;;;;;;5.02;70.32;102612.34;4983388;28;20033;-75
2022/03/25 01:50:24;;;;;;;65.75;30.25;;;;;;;4.98;70.63;102605.69;4991498;28;20030;-75
2022/03/25 01:52:52;;;;;;;66.05;30.52;;;;;;;4.95;70.87;102606.66;4993186;28;20045;-75
2022/03/25 01:55:26;;;;;;;65.03;29.13;;;;;;;4.91;70.88;102615.44;4987068;28;20031;-75
2022/03/25 01:57:54;;;;;;;63.03;30.77;;;;;;;4.86;71.31;102607.13;4989451;28;20495;-76
2022/03/25 02:00:20;;;;;;;63.47;30.00;;;;;;;4.84;71.11;102607.22;4961484;28;20058;-75
2022/03/25 02:02:48;;;;;;;67.00;29.95;;;;;;;4.81;71.34;102606.50;4987846;28;20064;-75
2022/03/25 02:05:15;;;;;;;63.63;29.73;;;;;;;4.79;71.52;102604.00;4971161;28;20116;-75
2022/03/25 02:07:41;;;;;;;66.43;29.75;;;;;;;4.77;71.29;102607.56;4970149;28;20558;-76
2022/03/25 02:10:07;;;;;;;66.53;30.65;;;;;;;4.74;71.56;102612.84;4970257;28;20036;-75
2022/03/25 02:12:35;;;;;;;68.13;30.15;;;;;;;4.69;72.27;102605.38;4968285;28;20086;-75
2022/03/25 02:15:05;;;;;;;68.22;31.30;;;;;;;4.67;71.92;102610.59;4959840;28;20015;-76
2022/03/25 02:17:32;;;;;;;68.00;31.50;;;;;;;4.64;72.12;102615.03;4985303;28;20068;-76
2022/03/25 02:19:57;;;;;;;72.05;32.00;;;;;;;4.61;72.19;102610.03;4971802;28;20032;-77
2022/03/25 02:22:23;;;;;;;70.07;31.73;;;;;;;4.60;72.72;102614.34;4987783;28;20477;-77
2022/03/25 02:24:49;;;;;;;70.57;30.80;;;;;;;4.59;72.66;102617.81;4987830;28;20037;-77
2022/03/25 02:27:18;;;;;;;71.43;30.73;;;;;;;4.59;72.72;102611.84;4959647;28;20131;-76
2022/03/25 02:29:45;;;;;;;64.63;31.05;;;;;;;4.56;72.98;102610.25;4969173;28;20037;-76
2022/03/25 02:32:12;;;;;;;78.65;33.05;;;;;;;4.55;72.71;102613.72;4985368;28;20517;-78
2022/03/25 02:34:38;;;;;;;67.35;31.42;;;;;;;4.53;73.42;102605.25;4970179;28;20021;-76
2022/03/25 02:37:05;;;;;;;73.30;31.27;;;;;;;4.52;73.67;102613.88;4973897;28;20041;-76
2022/03/25 02:39:31;;;;;;;68.95;32.95;;;;;;;4.51;73.61;102609.63;4985308;28;20183;-77
2022/03/25 02:41:57;;;;;;;71.65;33.60;;;;;;;4.46;74.10;102612.44;4987053;28;20769;-77
2022/03/25 02:44:24;;;;;;;72.18;32.38;;;;;;;4.45;73.87;102617.66;4967623;28;20061;-77
2022/03/25 02:46:50;;;;;;;70.72;31.67;;;;;;;4.41;74.23;102616.94;4969819;28;20406;-77
2022/03/25 02:49:18;;;;;;;69.25;31.27;;;;;;;4.38;74.22;102621.41;4969708;28;20808;-77
2022/03/25 02:51:44;;;;;;;65.57;32.35;;;;;;;4.34;74.37;102622.44;4984908;28;20502;-77
2022/03/25 02:54:09;;;;;;;72.00;31.20;;;;;;;4.32;74.30;102626.81;4968415;28;20027;-77
2022/03/25 02:56:35;;;;;;;70.03;30.63;;;;;;;4.28;74.54;102621.81;4982764;28;20046;-77
2022/03/25 02:59:00;;;;;;;75.75;34.03;;;;;;;4.26;74.71;102625.38;4963132;28;20327;-76
2022/03/25 03:01:27;;;;;;;70.18;32.25;;;;;;;4.22;74.86;102624.69;4987152;28;20395;-77
2022/03/25 03:03:53;;;;;;;70.22;31.45;;;;;;;4.21;75.14;102623.00;4986265;28;20034;-77
2022/03/25 03:06:19;;;;;;;73.10;32.88;;;;;;;4.18;75.80;102635.13;4984151;28;20439;-77
2022/03/25 03:08:44;;;;;;;70.45;31.83;;;;;;;4.14;75.60;102629.31;4971836;28;20119;-76
2022/03/25 03:11:11;;;;;;;71.53;31.50;;;;;;;4.12;75.42;102632.84;4970895;28;20661;-76
2022/03/25 03:13:36;;;;;;;85.20;33.95;;;;;;;4.05;76.00;102643.41;4959430;28;20105;-78
2022/03/25 03:16:02;;;;;;;77.80;33.67;;;;;;;4.01;76.04;102634.19;4968568;28;20495;-78
2022/03/25 03:18:27;;;;;;;72.45;32.55;;;;;;;3.97;76.20;102637.75;4986734;28;20069;-77
2022/03/25 03:20:53;;;;;;;80.47;34.65;;;;;;;3.94;76.41;102637.91;4983634;28;20034;-77
2022/03/25 03:23:19;;;;;;;71.32;32.47;;;;;;;3.92;76.61;102634.59;4985003;28;20042;-77
2022/03/25 03:25:44;;;;;;;75.68;33.20;;;;;;;3.93;76.76;102645.69;4970265;28;20045;-76
2022/03/25 03:28:11;;;;;;;73.97;32.72;;;;;;;3.91;76.85;102632.91;4983556;28;20185;-76
2022/03/25 03:30:36;;;;;;;80.15;33.28;;;;;;;3.89;76.85;102634.72;4968692;28;20034;-77
2022/03/25 03:33:04;;;;;;;79.07;33.50;;;;;;;3.85;77.43;102630.63;4968378;28;20057;-77
2022/03/25 03:35:32;;;;;;;71.57;30.80;;;;;;;3.81;77.35;102634.22;4984408;28;20045;-77
2022/03/25 03:37:58;;;;;;;75.68;32.63;;;;;;;3.78;77.18;102640.31;4954893;28;20422;-78
2022/03/25 03:40:24;;;;;;;68.97;32.03;;;;;;;3.77;77.16;102635.22;4985387;28;20104;-76
2022/03/25 03:42:50;;;;;;;78.35;32.08;;;;;;;3.73;77.62;102634.56;4981221;28;20034;-77
2022/03/25 03:45:16;;;;;;;80.57;34.13;;;;;;;3.68;77.61;102636.50;4967034;28;20398;-78
2022/03/25 03:47:42;;;;;;;76.85;33.08;;;;;;;3.63;77.86;102646.09;4984734;28;20420;-77
2022/03/25 03:50:11;;;;;;;78.47;34.40;;;;;;;3.59;78.51;102639.44;4983518;28;20061;-78
2022/03/25 03:52:38;;;;;;;79.13;34.58;;;;;;;3.57;78.53;102639.50;4983980;28;20042;-76
2022/03/25 03:55:05;;;;;;;83.50;34.90;;;;;;;3.58;78.86;102633.50;4969677;28;20037;-77
2022/03/25 03:57:31;;;;;;;79.35;35.47;;;;;;;3.57;78.70;102642.06;4968153;28;20043;-77
2022/03/25 03:59:56;;;;;;;88.60;36.38;;;;;;;3.58;79.44;102643.75;4989945;28;20057;-77
2022/03/25 04:02:22;;;;;;;85.30;36.97;;;;;;;3.58;79.45;102636.06;4968773;28;20053;-76
2022/03/25 04:04:48;;;;;;;93.55;37.13;;;;;;;3.59;79.25;102636.88;4966217;28;20068;-77
2022/03/25 04:07:13;;;;;;;89.03;36.50;;;;;;;3.57;79.30;102636.94;4983799;28;20038;-77
2022/03/25 04:09:39;;;;;;;81.15;35.38;;;;;;;3.55;79.50;102637.91;4967139;28;20064;-77
2022/03/25 04:12:05;;;;;;;84.93;34.35;;;;;;;3.51;79.18;102642.34;4981948;28;20500;-78
2022/03/25 04:14:31;;;;;;;93.72;35.72;;;;;;;3.48;79.66;102642.47;4968306;28;20025;-76
2022/03/25 04:16:56;;;;;;;85.03;33.45;;;;;;;3.47;79.29;102644.19;4968622;28;20034;-77
2022/03/25 04:19:22;;;;;;;84.03;34.08;;;;;;;3.45;79.28;102640.88;4983558;28;20046;-77
2022/03/25 04:21:47;;;;;;;75.55;33.10;;;;;;;3.40;79.45;102642.78;4969297;28;20038;-77
2022/03/25 04:24:13;;;;;;;81.35;34.70;;;;;;;3.37;79.41;102642.06;4952285;28;20027;-76
2022/03/25 04:26:38;;;;;;;84.57;34.75;;;;;;;3.30;79.78;102644.91;4969174;28;20034;-77
2022/03/25 04:29:03;;;;;;;80.97;33.30;;;;;;;3.28;79.85;102645.88;4985298;28;20038;-76
2022/03/25 04:31:29;;;;;;;79.47;33.67;;;;;;;3.25;79.97;102646.00;4962367;28;20034;-77
2022/03/25 04:33:54;;;;;;;81.40;36.60;;;;;;;3.22;79.56;102646.97;4968568;28;20248;-76
2022/03/25 04:36:20;;;;;;;89.18;36.92;;;;;;;3.21;79.41;102652.97;4967430;28;20046;-76
2022/03/25 04:38:45;;;;;;;92.28;35.28;;;;;;;3.17;79.98;102650.59;4988485;28;20026;-75
2022/03/25 04:41:11;;;;;;;86.93;35.35;;;;;;;3.14;80.04;102650.72;4969091;28;20026;-77
2022/03/25 04:43:37;;;;;;;91.68;37.22;;;;;;;3.12;80.06;102650.78;4966921;28;20034;-76
2022/03/25 04:46:04;;;;;;;80.95;35.40;;;;;;;3.09;80.23;102644.06;4979829;28;20747;-77
2022/03/25 04:48:29;;;;;;;85.78;36.08;;;;;;;3.07;80.38;102650.13;4966064;28;20061;-76
2022/03/25 04:50:55;;;;;;;93.47;39.42;;;;;;;3.06;80.82;102643.34;4969045;28;20030;-76
2022/03/25 04:53:21;;;;;;;94.05;37.97;;;;;;;3.04;81.07;102645.97;4984669;28;20274;-76
2022/03/25 04:55:46;;;;;;;98.65;40.00;;;;;;;3.02;80.95;102650.31;4968397;28;20322;-76
2022/03/25 04:58:12;;;;;;;91.75;39.03;;;;;;;2.98;81.16;102656.47;4970905;28;20042;-75
2022/03/25 05:00:38;;;;;;;93.00;39.10;;;;;;;2.97;81.27;102656.53;4952500;28;20037;-77
2022/03/25 05:03:04;;;;;;;88.05;38.40;;;;;;;2.93;81.47;102656.63;4958028;28;20132;-76
2022/03/25 05:05:32;;;;;;;98.00;42.65;;;;;;;2.91;81.29;102655.88;4966733;28;20061;-77
2022/03/25 05:07:57;;;;;;;94.53;40.28;;;;;;;2.88;81.67;102658.56;4966893;28;20038;-74
2022/03/25 05:10:23;;;;;;;100.05;40.25;;;;;;;2.88;81.46;102647.47;4956082;28;20521;-75
2022/03/25 05:12:48;;;;;;;98.85;38.85;;;;;;;2.87;81.49;102656.88;4966485;28;20436;-77
2022/03/25 05:15:14;;;;;;;101.30;39.67;;;;;;;2.85;81.51;102658.69;4978971;28;20110;-76
2022/03/25 05:17:47;;;;;;;94.40;39.25;;;;;;;2.83;81.80;102662.22;4987516;28;20422;-75
2022/03/25 05:20:14;;;;;;;96.15;41.08;;;;;;;2.82;82.17;102666.47;4966790;28;20042;-75
2022/03/25 05:22:39;;;;;;;102.22;42.78;;;;;;;2.80;81.88;102664.88;4982922;28;20066;-76
2022/03/25 05:25:07;;;;;;;100.75;41.38;;;;;;;2.78;82.09;102666.66;4951590;28;20039;-78
2022/03/25 05:27:53;;;;;;;98.47;40.55;;;;;;;2.75;81.99;102665.06;4982314;28;20038;-75
2022/03/25 05:30:24;;;;;;;95.03;39.65;;;;;;;2.75;82.14;102662.50;4968045;28;20144;-77
2022/03/25 05:32:50;;;;;;;108.30;41.70;;;;;;;2.74;82.29;102660.81;4970992;28;20137;-76
2022/03/25 05:35:17;;;;;;;112.32;43.70;;;;;;;2.77;82.18;102670.09;4967434;28;20022;-76
2022/03/25 05:37:43;;;;;;;108.45;42.53;;;;;;;2.76;82.23;102661.59;4983165;28;20418;-76
2022/03/25 05:40:10;;;;;;;108.57;42.30;;;;;;;2.77;82.25;102667.53;4953861;28;20161;-76
2022/03/25 05:42:36;;;;;;;102.47;43.05;;;;;;;2.78;82.40;102666.66;4965555;28;20120;-77
2022/03/25 05:45:04;;;;;;;101.60;43.63;;;;;;;2.78;82.28;102674.34;4983415;28;20044;-77
2022/03/25 05:47:29;;;;;;;103.35;41.97;;;;;;;2.78;82.43;102677.75;4954106;28;20481;-77
2022/03/25 05:49:55;;;;;;;100.63;39.83;;;;;;;2.77;82.54;102672.66;4950462;28;20034;-75
2022/03/25 05:52:20;;;;;;;94.47;40.15;;;;;;;2.77;82.38;102670.97;4983708;28;20557;-80
2022/03/25 05:54:46;;;;;;;104.82;42.70;;;;;;;2.80;82.47;102680.25;4967795;28;20026;-75
2022/03/25 05:57:11;;;;;;;101.50;40.58;;;;;;;2.80;82.73;102681.06;4964632;28;20442;-79
2022/03/25 05:59:37;;;;;;;102.55;40.55;;;;;;;2.80;82.47;102683.63;4967759;28;20380;-75
2022/03/25 06:02:02;;;;;;;100.97;41.03;;;;;;;2.82;82.76;102689.53;4952838;28;20045;-77
2022/03/25 06:04:28;;;;;;;104.05;41.20;;;;;;;2.84;82.50;102686.91;4950803;28;20681;-76
2022/03/25 06:06:53;;;;;;;107.47;42.35;;;;;;;2.86;82.92;102680.84;4952064;28;20357;-77
2022/03/25 06:09:19;;;;;;;100.40;40.63;;;;;;;2.88;82.97;102691.88;4967645;28;20040;-78
2022/03/25 06:11:45;;;;;;;98.90;42.72;;;;;;;2.92;83.15;102690.03;4965738;28;20049;-79
2022/03/25 06:14:11;;;;;;;110.05;43.47;;;;;;;2.96;82.78;102700.97;4951274;28;20121;-79
2022/03/25 06:16:36;;;;;;;108.55;44.78;;;;;;;3.00;82.85;102692.28;4966493;28;20038;-79
2022/03/25 06:19:02;;;;;;;105.05;42.65;;;;;;;3.03;83.34;102697.28;4965393;28;20037;-77
2022/03/25 06:21:27;;;;;;;103.82;43.05;;;;;;;3.04;82.91;102693.84;4968553;28;20137;-77
2022/03/25 06:23:53;;;;;;;113.40;43.47;;;;;;;3.10;82.88;102691.03;4971804;28;20030;-77
2022/03/25 06:26:18;;;;;;;114.90;44.53;;;;;;;3.13;83.48;102685.78;4986365;28;20478;-79
2022/03/25 06:28:44;;;;;;;110.30;45.13;;;;;;;3.18;83.16;102691.53;4986542;28;20045;-78
2022/03/25 06:31:09;;;;;;;117.10;46.97;;;;;;;3.24;83.67;102698.16;4952089;28;21692;-78
2022/03/25 06:33:37;;;;;;;124.20;47.83;;;;;;;3.30;84.00;102700.50;4986144;28;20030;-76
2022/03/25 06:36:04;;;;;;;116.05;47.53;;;;;;;3.41;83.73;102702.59;4987790;28;20125;-77
2022/03/25 06:38:29;;;;;;;109.82;44.70;;;;;;;3.48;83.93;102701.44;4984254;28;20046;-78
2022/03/25 06:40:55;;;;;;;112.07;45.58;;;;;;;3.60;84.21;102702.66;4972572;28;20463;-77
2022/03/25 06:43:20;;;;;;;124.10;49.00;;;;;;;3.72;84.25;102703.91;4989185;28;20050;-79
2022/03/25 06:45:46;;;;;;;146.23;52.88;;;;;;;3.90;84.20;102703.94;4988978;28;20030;-76
2022/03/25 06:48:11;;;;;;;126.60;51.92;;;;;;;4.16;84.40;102704.53;4970840;28;20490;-77
2022/03/25 06:50:37;;;;;;;131.55;51.65;;;;;;;4.56;83.56;102707.06;4985351;28;20038;-76
2022/03/25 06:53:04;;;;;;;130.20;52.17;;;;;;;5.07;82.49;102698.66;4987498;28;20542;-78
2022/03/25 06:55:30;;;;;;;138.20;54.78;;;;;;;5.69;80.04;102705.06;4970498;28;20034;-79
2022/03/25 06:57:57;;;;;;;127.97;54.17;;;;;;;6.26;77.35;102699.63;4985842;28;20041;-78
2022/03/25 07:00:24;;;;;;;135.68;53.47;;;;;;;6.68;74.30;102708.50;4969355;28;20041;-78
2022/03/25 07:02:51;;;;;;;121.55;50.45;;;;;;;7.16;72.67;102704.94;4960087;28;20037;-77
2022/03/25 07:05:17;;;;;;;121.43;49.90;;;;;;;7.67;71.23;102711.53;4968902;28;20133;-78
2022/03/25 07:07:44;;;;;;;124.70;50.75;;;;;;;8.10;69.76;102707.22;4985409;28;20030;-76
2022/03/25 07:10:11;;;;;;;123.85;49.03;;;;;;;8.42;68.18;102706.16;4955425;28;20458;-78
2022/03/25 07:12:41;;;;;;;108.28;47.55;;;;;;;8.79;67.08;102702.09;4987593;28;20517;-77
2022/03/25 07:15:07;;;;;;;122.43;49.30;;;;;;;9.11;65.67;102706.97;4965048;28;20027;-77
2022/03/25 07:17:34;;;;;;;110.60;47.22;;;;;;;9.45;64.20;102708.16;4987269;28;20076;-77
2022/03/25 07:20:01;;;;;;;115.70;47.78;;;;;;;9.66;63.39;102702.47;4972017;28;20061;-78
2022/03/25 07:22:26;;;;;;;112.38;49.38;;;;;;;10.01;62.63;102701.84;4970533;28;20038;-78
2022/03/25 07:24:52;;;;;;;114.15;47.33;;;;;;;10.18;61.13;102709.25;4954555;28;20031;-79
2022/03/25 07:27:17;;;;;;;112.90;49.13;;;;;;;10.43;60.89;102707.56;4970776;28;20113;-78
2022/03/25 07:29:43;;;;;;;117.50;49.97;;;;;;;10.54;59.38;102709.41;4972627;28;20045;-78
2022/03/25 07:32:08;;;;;;;105.88;46.88;;;;;;;10.48;59.57;102710.69;4985933;28;20030;-77
2022/03/25 07:34:36;;;;;;;115.75;47.28;;;;;;;10.86;59.24;102707.91;4983144;28;20671;-77
2022/03/25 07:37:03;;;;;;;109.53;49.03;;;;;;;10.90;58.55;102719.72;4970439;28;20133;-77
2022/03/25 07:39:29;;;;;;;114.35;46.83;;;;;;;11.16;57.70;102704.03;4953180;28;20582;-76
2022/03/25 07:41:55;;;;;;;109.15;47.08;;;;;;;11.35;57.91;102710.44;4984333;28;20042;-76
2022/03/25 07:44:20;;;;;;;106.45;47.35;;;;;;;11.46;58.00;102710.47;4970772;28;20144;-77
2022/03/25 07:46:46;;;;;;;104.68;45.35;;;;;;;11.88;56.86;102719.38;4986275;28;20046;-76
2022/03/25 07:49:11;;;;;;;106.18;45.40;;;;;;;12.34;56.75;102725.41;4987117;28;20042;-78
2022/03/25 07:51:37;;;;;;;111.75;48.97;;;;;;;12.03;55.99;102724.38;4969570;28;20077;-77
2022/03/25 07:54:02;;;;;;;106.78;47.05;;;;;;;11.95;56.32;102721.53;4978349;28;20030;-76
2022/03/25 07:56:28;;;;;;;101.90;44.30;;;;;;;12.31;55.47;102730.03;4986947;28;20045;-76
2022/03/25 07:58:53;;;;;;;112.95;47.08;;;;;;;12.58;54.46;102729.59;4968617;28;20494;-75
2022/03/25 08:01:19;;;;;;;105.40;47.47;;;;;;;12.90;53.92;102731.41;4959482;28;20034;-76
2022/03/25 08:03:44;;;;;;;99.28;44.22;;;;;;;13.03;53.74;102727.69;4987566;28;20246;-76
2022/03/25 08:06:13;;;;;;;106.53;48.05;;;;;;;13.13;53.36;102729.50;4985717;28;20046;-76
2022/03/25 08:08:38;;;;;;;105.45;47.75;;;;;;;13.13;52.55;102737.31;4987081;28;20493;-76
2022/03/25 08:11:04;;;;;;;105.63;47.35;;;;;;;13.15;52.67;102733.66;4966622;28;20045;-77
2022/03/25 08:13:29;;;;;;;107.55;48.10;;;;;;;13.11;53.64;102734.03;4970032;28;20096;-77
2022/03/25 08:15:55;;;;;;;111.30;47.30;;;;;;;13.63;51.58;102734.94;4968072;28;20053;-77
2022/03/25 08:18:21;;;;;;;97.78;45.75;;;;;;;13.67;52.58;102732.91;4982367;28;20038;-77
2022/03/25 08:20:48;;;;;;;103.35;46.67;;;;;;;13.87;51.84;102736.44;4968629;28;20129;-77
2022/03/25 08:28:58;;;;;;;99.20;46.47;;;;;;;14.10;51.74;102739.69;4981320;28;20423;-77
2022/03/25 08:31:24;;;;;;;105.43;48.35;;;;;;;14.21;50.62;102743.03;4982068;28;20125;-77
2022/03/25 08:33:50;;;;;;;98.32;46.42;;;;;;;14.49;51.38;102739.81;4985102;28;20610;-77
2022/03/25 08:36:17;;;;;;;94.85;46.45;;;;;;;14.55;49.39;102747.91;4967635;28;20047;-77
2022/03/25 08:38:43;;;;;;;94.60;45.15;;;;;;;14.71;49.37;102752.66;4966712;28;20038;-77
2022/03/25 08:41:09;;;;;;;95.60;46.00;;;;;;;14.60;48.37;102755.38;4983627;28;20318;-77
2022/03/25 08:43:35;;;;;;;89.88;42.00;;;;;;;14.99;47.83;102751.00;4952810;28;20069;-77
2022/03/25 08:46:01;;;;;;;103.57;44.95;;;;;;;14.88;48.57;102750.31;4969517;28;20117;-77
2022/03/25 08:48:27;;;;;;;100.13;44.90;;;;;;;15.02;47.61;102751.69;4966733;28;20038;-77
2022/03/25 08:50:53;;;;;;;87.15;43.00;;;;;;;15.05;47.67;102751.41;4968549;28;20093;-77
2022/03/25 08:53:19;;;;;;;100.65;46.63;;;;;;;15.23;48.12;102747.13;4968740;28;20030;-79
2022/03/25 08:55:45;;;;;;;105.25;46.38;;;;;;;15.43;47.88;102753.16;4982634;28;20455;-76
2022/03/25 08:58:10;;;;;;;83.22;42.45;;;;;;;15.68;45.77;102751.72;4968924;28;20043;-76
2022/03/25 09:00:35;;;;;;;92.15;41.58;;;;;;;15.74;46.27;102759.00;4981139;28;20041;-77
2022/03/25 09:03:01;;;;;;;80.78;41.25;;;;;;;15.85;45.44;102758.03;4970406;28;20035;-76
2022/03/25 09:05:26;;;;;;;86.60;43.08;;;;;;;15.80;46.31;102748.94;4969179;28;20039;-76
2022/03/25 09:07:52;;;;;;;91.47;43.88;;;;;;;15.84;45.82;102755.53;4955141;28;20031;-77
2022/03/25 09:10:17;;;;;;;95.05;46.13;;;;;;;16.02;46.22;102751.22;4970150;28;20050;-77
2022/03/25 09:12:44;;;;;;;100.03;44.25;;;;;;;15.58;45.96;102750.94;4983196;28;20045;-76
2022/03/25 09:15:13;;;;;;;98.28;44.97;;;;;;;15.92;45.87;102753.88;4983053;28;20066;-76
2022/03/25 09:17:39;;;;;;;95.03;44.65;;;;;;;15.88;46.83;102756.91;4987747;28;20034;-78
2022/03/25 09:20:05;;;;;;;102.28;47.83;;;;;;;16.00;46.12;102763.59;4966757;28;20045;-77
2022/03/25 09:22:31;;;;;;;94.32;43.55;;;;;;;15.91;45.91;102762.66;4985615;28;20041;-78
2022/03/25 09:24:58;;;;;;;90.22;40.88;;;;;;;15.67;45.61;102759.69;4984605;28;21489;-77
2022/03/25 09:27:23;;;;;;;95.18;47.63;;;;;;;15.51;45.74;102765.53;4984287;28;20046;-77
2022/03/25 09:29:49;;;;;;;112.18;59.80;;;;;;;15.47;47.05;102764.16;4984621;28;20045;-77
2022/03/25 09:32:14;;;;;;;99.75;46.60;;;;;;;15.28;47.60;102763.22;4987360;28;20061;-77
2022/03/25 09:37:24;;;;;;;94.40;45.30;;;;;;;15.55;47.07;102774.72;4981156;28;20101;-77
2022/03/25 09:39:50;;;;;;;87.55;45.40;;;;;;;15.30;47.36;102766.53;4969609;28;20512;-76
2022/03/25 09:42:16;;;;;;;96.20;44.95;;;;;;;15.22;47.48;102768.16;4964620;28;20372;-77
2022/03/25 09:44:42;;;;;;;96.65;47.22;;;;;;;15.33;50.05;102766.25;4982971;28;20490;-77
2022/03/25 09:47:10;;;;;;;90.13;45.58;;;;;;;15.57;48.21;102763.16;4980211;28;20152;-77
2022/03/25 09:49:38;;;;;;;95.80;43.67;;;;;;;15.54;47.81;102763.47;4982218;28;20113;-79
2022/03/25 09:52:05;;;;;;;96.85;43.50;;;;;;;15.72;49.13;102758.31;4950789;28;20065;-77
2022/03/25 09:54:31;;;;;;;93.20;46.65;;;;;;;15.62;48.43;102765.38;4970985;28;20022;-78
2022/03/25 09:56:57;;;;;;;108.72;58.10;;;;;;;15.44;48.28;102764.44;4972876;28;20070;-77
2022/03/25 09:59:22;;;;;;;104.38;45.63;;;;;;;15.32;49.11;102761.16;4971192;28;20533;-77
2022/03/25 10:01:48;;;;;;;83.97;41.95;;;;;;;15.17;48.77;102758.97;4993000;28;20029;-77
2022/03/25 10:04:45;;;;;;;89.35;43.70;;;;;;;15.11;49.15;102756.91;4984573;28;20041;-77
2022/03/25 10:07:23;;;;;;;93.03;43.40;;;;;;;15.39;49.26;102762.25;4970980;28;20042;-79
2022/03/25 10:10:07;;;;;;;105.07;44.17;;;;;;;15.63;48.71;102756.53;4990835;28;20040;-77
2022/03/25 10:12:33;;;;;;;80.95;41.05;;;;;;;15.84;47.68;102750.31;4971175;28;20034;-78
2022/03/25 10:15:21;;;;;;;83.22;39.22;;;;;;;15.86;45.72;102758.84;4974298;28;21452;-79
2022/03/25 10:18:06;;;;;;;89.72;40.78;;;;;;;15.87;46.04;102758.69;4971305;28;20034;-78
2022/03/25 10:20:37;;;;;;;72.72;33.20;;;;;;;16.07;42.10;102759.44;4969833;28;20469;-77
2022/03/25 10:23:13;;;;;;;74.97;34.33;;;;;;;16.10;41.74;102760.94;4962220;28;20030;-77
2022/03/25 10:25:41;;;;;;;80.75;36.95;;;;;;;16.01;43.40;102760.03;4988645;28;20038;-78
2022/03/25 10:28:20;;;;;;;65.93;35.10;;;;;;;16.13;42.14;102764.09;4971367;28;20057;-79
2022/03/25 10:30:49;;;;;;;73.70;34.25;;;;;;;16.18;42.50;102762.84;4991154;28;20446;-78
2022/03/25 10:33:25;;;;;;;76.65;35.83;;;;;;;16.17;44.10;102756.78;4972508;28;20179;-79
2022/03/25 10:36:11;;;;;;;84.28;35.22;;;;;;;16.04;42.62;102753.69;4989367;28;20273;-77
2022/03/25 10:38:40;;;;;;;67.88;31.58;;;;;;;16.08;40.96;102758.47;4968404;28;20117;-78
2022/03/25 10:41:06;;;;;;;63.22;30.98;;;;;;;16.37;40.13;102751.44;4972855;28;20037;-78
2022/03/25 10:43:31;;;;;;;70.20;29.95;;;;;;;16.33;40.23;102756.97;4970697;28;20023;-78
2022/03/25 10:45:57;;;;;;;71.82;31.80;;;;;;;16.26;41.05;102755.09;4973082;28;20042;-79
2022/03/25 10:48:24;;;;;;;60.92;28.30;;;;;;;16.46;40.62;102753.16;4986096;28;20022;-77
2022/03/25 10:51:01;;;;;;;59.40;30.65;;;;;;;16.52;40.32;102753.41;4958469;28;20327;-78
2022/03/25 10:53:28;;;;;;;72.22;33.45;;;;;;;16.57;41.93;102746.91;4975014;28;20046;-77
2022/03/25 10:55:56;;;;;;;74.22;30.83;;;;;;;16.62;41.12;102737.63;4985871;28;20038;-78
2022/03/25 10:58:22;;;;;;;58.35;28.23;;;;;;;16.62;40.25;102739.44;4956206;28;20030;-78
2022/03/25 11:00:48;;;;;;;55.95;25.60;;;;;;;16.40;39.82;102746.72;4972009;28;20041;-77
2022/03/25 11:03:14;;;;;;;57.58;27.27;;;;;;;16.46;38.90;102750.56;4990064;28;20041;-77
2022/03/25 11:05:40;;;;;;;55.88;24.90;;;;;;;16.50;39.81;102738.81;4967999;28;20030;-77
2022/03/25 11:08:06;;;;;;;60.08;27.30;;;;;;;16.68;40.39;102738.84;4969112;28;20037;-78
2022/03/25 11:10:32;;;;;;;65.15;28.30;;;;;;;16.64;39.14;102738.31;4988991;28;20504;-78
2022/03/25 11:13:01;;;;;;;62.45;28.85;;;;;;;16.77;40.24;102737.13;4974633;28;20089;-78
2022/03/25 11:15:28;;;;;;;60.22;27.45;;;;;;;16.64;38.79;102729.63;4989985;28;20113;-78
2022/03/25 11:17:54;;;;;;;48.15;22.13;;;;;;;16.53;37.95;102735.91;4987851;28;20351;-78